Ana Sayfa
METAR-TAF:

METAR-TAF

Havaalanları :

Ouagadougou, Burkina Faso

Enlem: 12-21N, Boylam: 001-31W, yükseklik: 316 m

Güncel hava durumu gözlemi

Rapor saat 08:00 UTC de 54 dakika önce yapıldı.
Rüzgar kuzey/kuzeydoğudan 7 kt
Sıcaklık 24°C
Nem 18%
Basınç 1014 hPa
Görüş mesafesi: 8000 m

METAR: DFFD 170800Z 03007KT 8000 NSC 24/M02 Q1014 NOSIG

Saat: 08:54 (08:54 UTC)

Tahmin

Rapor saat 05:00 UTC de 3 saat ve 54 dakika önce yapıldı.
Ayın 17'si saat 06 UTC'den ayın 18'si saat 12 UTC'ye kadar geçerli Tahmin
Rüzgar kuzeydoğudan 10 kt
Görüş mesafesi: 8000 m
Geçici
ayın 17'si saat 06 UTC'den ayın 17'si saat 10 UTC'ye kadar
Görüş mesafesi: 4000 m
Toz Pusu
Geçici
ayın 17'si saat 17 UTC'den ayın 17'si saat 20 UTC'ye kadar
Görüş mesafesi: 4000 m
Toz Pusu

TAF: DFFD 170500Z 1706/1812 05010KT 8000 NSC TEMPO 1706/1710 4000 HZ TEMPO 1717/1720 4000 HZ

4.000'den fazla havaalanı için hava durumu gözlemleri ve tahminleri (METAR ve TAF raporları).

Kullanılabilir istasyonlar harita üzerinde sarı ve kırmızı noktalarla gösterilir.

İstasyonun adını görmek için fareyi noktanın üzerinde gezdirin.

Sonrasında hava gözlem ve tahminlerini görmek için tıklayın.

Haritayı değiştirmek için: yaklaştırmak için siyah artı işaretli yeşil düğmeye ve uzaklaştırmak için de eksi işaretli düğmeye hızla tıklayın; bitişik haritalar için yeşil okları kullanın.


METAR-TAF: